createdAt,value
2022-11-15T00:04:22.641Z,10.10
2022-11-15T00:09:26.781Z,10.12
2022-11-15T00:14:30.960Z,10.28
2022-11-15T00:19:35.135Z,10.36
2022-11-15T00:24:39.314Z,10.45
2022-11-15T00:29:43.433Z,10.57
2022-11-15T00:34:47.596Z,10.65
2022-11-15T00:39:51.771Z,10.77
2022-11-15T00:44:55.907Z,10.81
2022-11-15T00:50:00.080Z,10.92
2022-11-15T00:55:04.254Z,10.97
2022-11-15T01:00:08.408Z,11.10
2022-11-15T01:05:12.548Z,11.17
2022-11-15T01:10:16.753Z,11.29
2022-11-15T01:15:20.902Z,11.27
2022-11-15T01:20:25.080Z,11.30
2022-11-15T01:25:29.203Z,11.33
2022-11-15T01:30:33.365Z,11.37
2022-11-15T01:35:35.655Z,11.48
2022-11-15T01:40:39.822Z,11.42
2022-11-15T01:45:43.947Z,11.45
2022-11-15T01:50:48.102Z,11.44
2022-11-15T01:55:52.292Z,11.41
2022-11-15T02:00:56.556Z,11.38
2022-11-15T02:06:00.611Z,11.42
2022-11-15T02:11:04.762Z,11.54
2022-11-15T02:16:08.959Z,11.65
2022-11-15T02:21:13.086Z,11.67
2022-11-15T02:26:17.234Z,11.74
2022-11-15T02:31:21.397Z,11.71
2022-11-15T02:36:25.581Z,11.63
2022-11-15T02:41:29.768Z,11.60
2022-11-15T02:46:33.882Z,11.55
2022-11-15T02:51:38.027Z,11.40
2022-11-15T02:56:42.216Z,11.38
2022-11-15T03:01:46.369Z,11.39
2022-11-15T03:06:50.551Z,11.44
2022-11-15T03:11:54.692Z,11.48
2022-11-15T03:16:58.891Z,11.49
2022-11-15T03:22:03.033Z,11.56
2022-11-15T03:27:07.176Z,11.60
2022-11-15T03:32:11.354Z,11.67
2022-11-15T03:37:15.514Z,11.69
2022-11-15T03:42:19.665Z,11.72
2022-11-15T03:47:23.833Z,11.72
2022-11-15T03:52:28.082Z,11.77
2022-11-15T03:57:32.172Z,11.79
2022-11-15T04:02:36.308Z,11.79
2022-11-15T04:07:40.462Z,11.80
2022-11-15T04:12:44.613Z,11.78
2022-11-15T04:17:48.801Z,11.77
2022-11-15T04:22:52.930Z,11.81
2022-11-15T04:27:57.110Z,11.82
2022-11-15T04:33:01.317Z,11.90
2022-11-15T04:38:05.460Z,11.93
2022-11-15T04:43:09.611Z,11.95
2022-11-15T04:48:13.744Z,11.96
2022-11-15T04:53:17.898Z,11.91
2022-11-15T04:58:22.096Z,11.90
2022-11-15T05:03:26.230Z,11.96
2022-11-15T05:08:30.370Z,12.01
2022-11-15T05:13:34.670Z,12.00
2022-11-15T05:18:38.694Z,11.95
2022-11-15T05:23:42.867Z,11.96
2022-11-15T05:28:47.036Z,11.99
2022-11-15T05:33:51.173Z,12.02
2022-11-15T05:38:55.335Z,12.07
2022-11-15T05:43:59.540Z,12.07
2022-11-15T05:49:03.691Z,12.10
2022-11-15T05:54:07.835Z,12.13
2022-11-15T05:59:12.001Z,12.12
2022-11-15T06:04:16.142Z,12.10
2022-11-15T06:09:20.329Z,12.05
2022-11-15T06:14:24.508Z,12.01
2022-11-15T06:19:28.671Z,12.05
2022-11-15T06:24:32.836Z,12.09
2022-11-15T06:29:36.970Z,12.09
2022-11-15T06:34:41.116Z,12.09
2022-11-15T06:39:45.266Z,12.16
2022-11-15T06:44:49.478Z,12.19
2022-11-15T06:49:53.602Z,12.20
2022-11-15T06:54:57.741Z,12.24
2022-11-15T07:00:01.920Z,12.21
2022-11-15T07:05:04.198Z,12.18
2022-11-15T07:10:08.360Z,12.18
2022-11-15T07:15:12.529Z,12.24
2022-11-15T07:20:16.676Z,12.23
2022-11-15T07:25:20.839Z,12.16
2022-11-15T07:30:25.000Z,12.03
2022-11-15T07:35:29.290Z,11.93
2022-11-15T07:40:33.335Z,11.83
2022-11-15T07:45:37.485Z,11.74
2022-11-15T07:50:41.663Z,11.74
2022-11-15T07:55:45.828Z,11.70
2022-11-15T08:00:49.976Z,11.70
2022-11-15T08:05:54.151Z,11.67
2022-11-15T08:10:58.285Z,11.66
2022-11-15T08:16:02.450Z,11.66
2022-11-15T08:21:06.625Z,11.68
2022-11-15T08:26:10.791Z,11.70
2022-11-15T08:31:14.917Z,11.71
2022-11-15T08:36:19.112Z,11.81
2022-11-15T08:41:23.285Z,11.79
2022-11-15T08:46:27.417Z,11.85
2022-11-15T08:51:31.594Z,11.92
2022-11-15T08:56:35.716Z,11.94
2022-11-15T09:01:39.989Z,11.92
2022-11-15T09:06:44.073Z,11.91
2022-11-15T09:11:48.202Z,12.02
2022-11-15T09:16:52.408Z,12.03
2022-11-15T09:21:56.522Z,12.07
2022-11-15T09:27:00.713Z,12.07
2022-11-15T09:32:04.884Z,12.08
2022-11-15T09:37:09.035Z,12.11
2022-11-15T09:42:13.217Z,12.13
2022-11-15T09:47:17.345Z,12.13
2022-11-15T09:52:21.518Z,12.14
2022-11-15T09:57:25.660Z,12.22
2022-11-15T10:02:29.820Z,12.25
2022-11-15T10:07:34.023Z,12.34
2022-11-15T10:12:38.115Z,12.38
2022-11-15T10:17:42.338Z,12.39
2022-11-15T10:22:46.477Z,12.35
2022-11-15T10:27:50.598Z,12.44
2022-11-15T10:32:54.789Z,12.48
2022-11-15T10:37:58.953Z,12.60
2022-11-15T10:43:03.138Z,12.55
2022-11-15T10:48:07.242Z,12.57
2022-11-15T10:53:11.449Z,12.58
2022-11-15T10:58:15.605Z,12.69
2022-11-15T11:03:19.994Z,12.72
2022-11-15T11:08:23.913Z,12.83
2022-11-15T11:13:28.059Z,12.88
2022-11-15T11:18:32.520Z,12.93
2022-11-15T11:23:36.373Z,13.03
2022-11-15T11:28:40.562Z,13.15
2022-11-15T11:33:44.688Z,13.21
2022-11-15T11:38:48.882Z,13.38
2022-11-15T11:43:53.028Z,13.40
2022-11-15T11:48:57.211Z,13.46
2022-11-15T11:54:01.361Z,13.69
2022-11-15T11:59:05.478Z,13.72
2022-11-15T12:04:09.686Z,13.70
2022-11-15T12:09:13.808Z,13.71
2022-11-15T12:14:17.969Z,13.67
2022-11-15T12:19:22.145Z,13.66
2022-11-15T12:24:26.300Z,13.58
2022-11-15T12:29:30.493Z,13.57
2022-11-15T12:34:32.731Z,13.66
2022-11-15T12:39:36.928Z,13.61
2022-11-15T12:44:41.081Z,13.67
2022-11-15T12:49:45.211Z,13.72
2022-11-15T12:54:49.370Z,13.66
2022-11-15T12:59:53.520Z,13.55
2022-11-15T13:04:55.810Z,13.53
2022-11-15T13:09:59.953Z,13.61
2022-11-15T13:15:04.130Z,13.71
2022-11-15T13:20:08.296Z,13.66
2022-11-15T13:25:12.426Z,13.84
2022-11-15T13:30:16.634Z,13.80
2022-11-15T13:35:20.792Z,13.83
2022-11-15T13:40:24.919Z,13.88
2022-11-15T13:45:29.093Z,13.61
2022-11-15T13:50:33.240Z,13.39
2022-11-15T13:55:37.393Z,13.31
2022-11-15T14:00:41.584Z,13.28
2022-11-15T14:05:45.730Z,13.21
2022-11-15T14:10:49.911Z,13.10
2022-11-15T14:15:54.062Z,13.13
2022-11-15T14:20:58.204Z,13.18
2022-11-15T14:31:06.557Z,13.11
2022-11-15T14:36:10.680Z,13.13
2022-11-15T14:41:14.850Z,13.16
2022-11-15T14:46:19.003Z,13.00
2022-11-15T14:51:23.169Z,12.86
2022-11-15T14:56:27.321Z,12.87
2022-11-15T15:01:31.513Z,12.94
2022-11-15T15:06:35.733Z,12.87
2022-11-15T15:11:39.791Z,12.86
2022-11-15T15:16:43.988Z,12.79
2022-11-15T15:21:48.166Z,12.71
2022-11-15T15:26:52.268Z,12.72
2022-11-15T15:31:56.443Z,12.68
2022-11-15T15:37:00.626Z,12.68
2022-11-15T15:42:04.796Z,12.63
2022-11-15T15:47:08.921Z,12.63
2022-11-15T15:52:13.118Z,12.63
2022-11-15T15:57:17.287Z,12.61
2022-11-15T16:02:21.441Z,12.62
2022-11-15T16:07:25.636Z,12.59
2022-11-15T16:12:29.731Z,12.68
2022-11-15T16:17:34.450Z,12.60
2022-11-15T16:22:38.035Z,12.63
2022-11-15T16:27:42.235Z,12.62
2022-11-15T16:32:46.450Z,12.64
2022-11-15T16:37:50.574Z,12.66
2022-11-15T16:42:54.716Z,12.66
2022-11-15T16:47:58.840Z,12.70
2022-11-15T16:53:03.033Z,12.73
2022-11-15T16:58:07.167Z,12.64
2022-11-15T17:03:11.356Z,12.76
2022-11-15T17:08:15.540Z,12.80
2022-11-15T17:13:19.637Z,12.81
2022-11-15T17:18:23.874Z,12.92
2022-11-15T17:23:27.978Z,12.89
2022-11-15T17:28:32.256Z,12.89
2022-11-15T17:33:36.292Z,12.94
2022-11-15T17:38:40.469Z,12.96
2022-11-15T17:43:44.637Z,12.98
2022-11-15T17:48:48.787Z,13.02
2022-11-15T17:53:52.994Z,13.08
2022-11-15T17:58:57.119Z,13.00
2022-11-15T18:04:01.306Z,13.02
2022-11-15T18:09:05.419Z,13.09
2022-11-15T18:14:09.588Z,13.13
2022-11-15T18:19:13.936Z,13.19
2022-11-15T18:24:17.902Z,13.26
2022-11-15T18:29:22.101Z,13.23
2022-11-15T18:34:24.335Z,13.30
2022-11-15T18:39:28.472Z,13.19
2022-11-15T18:44:32.650Z,13.22
2022-11-15T18:49:36.846Z,13.22
2022-11-15T18:54:40.955Z,13.24
2022-11-15T18:59:45.130Z,13.27
2022-11-15T19:04:49.332Z,13.35
2022-11-15T19:09:53.483Z,13.44
2022-11-15T19:14:57.628Z,13.50
2022-11-15T19:20:01.824Z,13.44
2022-11-15T19:25:05.936Z,13.38
2022-11-15T19:30:10.134Z,13.36
2022-11-15T19:35:14.274Z,13.33
2022-11-15T19:40:18.444Z,13.23
2022-11-15T19:45:22.586Z,13.11
2022-11-15T19:50:26.750Z,13.04
2022-11-15T19:55:30.923Z,12.96
2022-11-15T20:00:35.154Z,12.90
2022-11-15T20:05:39.219Z,12.79
2022-11-15T20:10:43.405Z,12.73
2022-11-15T20:15:47.583Z,12.63
2022-11-15T20:20:51.694Z,12.57
2022-11-15T20:25:55.845Z,12.54
2022-11-15T20:31:00.046Z,12.55
2022-11-15T20:36:04.166Z,12.53
2022-11-15T20:41:08.361Z,12.52
2022-11-15T20:46:12.609Z,12.52
2022-11-15T20:51:16.705Z,12.53
2022-11-15T20:56:20.938Z,12.57
2022-11-15T21:01:25.396Z,12.59
2022-11-15T21:06:29.147Z,12.66
2022-11-15T21:11:33.351Z,12.67
2022-11-15T21:16:37.468Z,12.64
2022-11-15T21:21:41.616Z,12.63
2022-11-15T21:26:45.781Z,12.61
2022-11-15T21:31:49.934Z,12.57
2022-11-15T21:36:54.106Z,12.55
2022-11-15T21:41:58.281Z,12.53
2022-11-15T21:47:02.434Z,12.55
2022-11-15T21:52:06.592Z,12.56
2022-11-15T21:57:10.752Z,12.54
2022-11-15T22:02:14.883Z,12.52
2022-11-15T22:07:19.164Z,12.54
2022-11-15T22:12:28.442Z,12.52
2022-11-15T22:17:27.388Z,12.48
2022-11-15T22:22:31.568Z,12.47
2022-11-15T22:27:35.725Z,12.48
2022-11-15T22:32:39.874Z,12.48
2022-11-15T22:37:44.002Z,12.48
2022-11-15T22:42:48.182Z,12.47
2022-11-15T22:47:52.339Z,12.41
2022-11-15T22:52:56.549Z,12.43
2022-11-15T22:58:00.680Z,12.41
2022-11-15T23:03:05.089Z,12.38
2022-11-15T23:08:09.013Z,12.35
2022-11-15T23:13:13.130Z,12.29
2022-11-15T23:18:17.298Z,12.26
2022-11-15T23:23:21.482Z,12.24
2022-11-15T23:28:25.617Z,12.21
2022-11-15T23:33:29.808Z,12.18
2022-11-15T23:38:34.336Z,12.16
2022-11-15T23:43:38.129Z,12.11
2022-11-15T23:48:42.304Z,12.05
2022-11-15T23:53:46.445Z,12.01
2022-11-15T23:58:50.597Z,11.93
